Time;durP1;ratioP1;P1;durP2;ratioP2;P2;SDS_P1;SDS_P2;PMS_P1;PMS_P2;Temp;Humidity;BMP_temperature;BMP_pressure;BME280_temperature;BME280_humidity;BME280_pressure;Samples;Min_cycle;Max_cycle;Signal;HPM_P1;HPM_P2
2023/03/12 00:01:32;;;;;;;18.77;12.10;;;;;;;6.56;63.80;101042.81;5033182;28;20132;-41
2023/03/12 00:04:00;;;;;;;19.70;12.23;;;;;;;6.57;62.69;101047.22;5034859;28;20064;-42
2023/03/12 00:06:25;;;;;;;19.20;12.13;;;;;;;6.56;62.58;101045.56;5034582;28;20057;-41
2023/03/12 00:08:51;;;;;;;21.40;12.60;;;;;;;6.61;63.45;101048.31;5034236;28;20045;-42
2023/03/12 00:11:18;;;;;;;18.77;11.93;;;;;;;6.60;62.62;101038.41;5034178;28;20111;-41
2023/03/12 00:13:48;;;;;;;20.10;12.10;;;;;;;6.58;62.22;101029.63;5034357;28;20033;-41
2023/03/12 00:16:14;;;;;;;19.65;11.93;;;;;;;6.63;63.29;101035.09;5034209;28;20116;-41
2023/03/12 00:18:41;;;;;;;18.85;11.70;;;;;;;6.52;63.15;101016.94;5033861;28;20108;-40
2023/03/12 00:21:07;;;;;;;19.08;11.80;;;;;;;6.67;63.38;101030.72;5034142;28;20044;-40
2023/03/12 00:23:33;;;;;;;18.60;11.77;;;;;;;6.69;62.47;101028.53;5033848;28;20490;-40
2023/03/12 00:26:04;;;;;;;19.30;12.07;;;;;;;6.63;63.59;101015.84;5034078;28;20040;-40
2023/03/12 00:28:30;;;;;;;20.08;11.85;;;;;;;6.65;61.82;101021.09;5033918;28;20041;-40
2023/03/12 00:30:57;;;;;;;19.25;11.75;;;;;;;6.56;62.21;101012.56;5033700;28;20064;-39
2023/03/12 00:33:25;;;;;;;19.17;11.85;;;;;;;6.54;63.02;101007.34;5033452;28;20108;-40
2023/03/12 00:35:52;;;;;;;18.52;11.68;;;;;;;6.55;62.67;101000.75;5032065;28;20035;-39
2023/03/12 00:38:17;;;;;;;20.10;12.02;;;;;;;6.58;63.42;100999.38;5033335;28;20405;-39
2023/03/12 00:40:42;;;;;;;18.90;11.30;;;;;;;6.59;63.86;100997.44;5033375;28;20021;-39
2023/03/12 00:43:08;;;;;;;19.67;11.85;;;;;;;6.60;63.87;100991.69;5033576;28;20091;-40
2023/03/12 00:45:33;;;;;;;19.27;11.65;;;;;;;6.61;63.75;100993.34;5033309;28;20083;-40
2023/03/12 00:47:58;;;;;;;18.20;11.45;;;;;;;6.57;62.41;100997.72;5032529;28;20471;-40
2023/03/12 00:50:24;;;;;;;19.92;12.18;;;;;;;6.60;63.28;101004.59;5033441;28;20056;-40
2023/03/12 00:52:49;;;;;;;19.90;11.77;;;;;;;6.57;62.98;101003.22;5031980;28;20500;-40
2023/03/12 00:55:14;;;;;;;20.05;11.80;;;;;;;6.54;63.88;100988.13;5031995;28;20028;-39
2023/03/12 00:57:40;;;;;;;20.67;11.88;;;;;;;6.57;63.66;100986.72;5033306;28;20021;-39
2023/03/12 01:00:09;;;;;;;17.88;11.80;;;;;;;6.56;64.19;100971.34;5024999;28;20176;-40
2023/03/12 01:02:35;;;;;;;19.58;11.80;;;;;;;6.59;63.71;100981.78;5032513;28;20043;-40
2023/03/12 01:05:00;;;;;;;21.13;12.35;;;;;;;6.53;62.26;100977.38;5032812;28;20108;-40
2023/03/12 01:07:25;;;;;;;20.10;12.00;;;;;;;6.55;63.48;100976.03;5032850;28;20076;-39
2023/03/12 01:09:51;;;;;;;18.90;11.43;;;;;;;6.60;63.28;100980.69;5032975;28;20068;-40
2023/03/12 01:12:16;;;;;;;19.33;11.80;;;;;;;6.56;63.26;100976.84;5032805;28;20110;-40
2023/03/12 01:14:41;;;;;;;19.92;11.73;;;;;;;6.61;63.66;100973.25;5032831;28;20061;-40
2023/03/12 01:17:07;;;;;;;18.65;11.85;;;;;;;6.58;63.49;100962.81;5032221;28;20025;-41
2023/03/12 01:19:32;;;;;;;19.25;11.75;;;;;;;6.46;62.90;100960.34;5032855;28;20044;-40
2023/03/12 01:21:58;;;;;;;19.75;11.80;;;;;;;6.52;63.55;100965.56;5032357;28;20025;-40
2023/03/12 01:24:23;;;;;;;18.48;11.35;;;;;;;6.53;63.97;100958.97;5032686;28;20098;-40
2023/03/12 01:26:48;;;;;;;19.83;11.82;;;;;;;6.59;63.42;100968.03;5032470;28;20037;-40
2023/03/12 01:29:14;;;;;;;20.00;12.10;;;;;;;6.63;63.77;100955.38;5032320;28;20469;-40
2023/03/12 01:31:39;;;;;;;19.20;11.63;;;;;;;6.64;64.00;100954.28;5032467;28;20040;-40
2023/03/12 01:34:04;;;;;;;18.25;11.65;;;;;;;6.68;63.92;100957.28;5032466;28;20025;-40
2023/03/12 01:36:30;;;;;;;18.77;11.95;;;;;;;6.67;63.50;100961.16;5032287;28;20033;-40
2023/03/12 01:38:57;;;;;;;18.60;12.07;;;;;;;6.70;63.83;100969.69;5031781;28;20060;-40
2023/03/12 01:41:25;;;;;;;19.33;12.10;;;;;;;6.71;63.51;100962.25;5032080;28;20116;-40
2023/03/12 01:43:51;;;;;;;19.92;11.73;;;;;;;6.75;63.38;100959.75;5032789;28;20025;-40
2023/03/12 01:46:28;;;;;;;19.10;11.75;;;;;;;6.77;63.50;100954.81;5032099;28;20069;-39
2023/03/12 01:48:59;;;;;;;18.45;11.68;;;;;;;6.75;63.44;100949.63;5032519;28;20032;-40
2023/03/12 01:51:29;;;;;;;19.73;11.90;;;;;;;6.65;63.25;100931.19;5032428;28;20483;-40
2023/03/12 01:53:59;;;;;;;20.80;12.10;;;;;;;6.66;63.86;100916.34;5030984;28;20124;-40
2023/03/12 01:56:29;;;;;;;17.65;11.65;;;;;;;6.67;64.39;100915.25;5032400;28;20044;-40
2023/03/12 01:58:59;;;;;;;17.48;11.80;;;;;;;6.71;63.67;100927.31;5031979;28;20045;-39
2023/03/12 02:01:26;;;;;;;19.15;11.75;;;;;;;6.74;63.97;100923.22;5024985;28;20091;-39
2023/03/12 02:03:53;;;;;;;20.58;12.18;;;;;;;6.77;63.50;100922.63;5031590;28;20060;-40
2023/03/12 02:06:25;;;;;;;20.52;11.90;;;;;;;6.81;64.22;100925.66;5031798;28;20056;-40
2023/03/12 02:08:51;;;;;;;19.90;11.90;;;;;;;6.82;63.37;100924.56;5031967;28;20041;-40
2023/03/12 02:11:16;;;;;;;18.25;11.98;;;;;;;6.80;64.03;100918.53;5031818;28;20041;-40
2023/03/12 02:13:42;;;;;;;18.92;11.52;;;;;;;6.81;63.57;100926.50;5031854;28;20033;-41
2023/03/12 02:16:08;;;;;;;19.27;11.60;;;;;;;6.79;62.69;100925.13;5031758;28;20044;-40
2023/03/12 02:18:34;;;;;;;18.67;11.93;;;;;;;6.77;63.89;100911.63;5031930;28;20183;-40
2023/03/12 02:21:05;;;;;;;20.40;12.00;;;;;;;6.77;63.93;100911.63;5031793;28;20029;-40
2023/03/12 02:24:02;;;;;;;19.70;12.02;;;;;;;6.82;63.94;100913.56;5030840;28;20038;-40
2023/03/12 02:26:28;;;;;;;18.58;12.23;;;;;;;6.80;63.44;100902.84;5031471;28;20040;-40
2023/03/12 02:28:55;;;;;;;18.30;11.80;;;;;;;6.75;65.19;100886.38;5031575;28;20416;-40
2023/03/12 02:31:24;;;;;;;18.15;12.00;;;;;;;6.75;63.63;100880.03;5031623;28;20037;-40
2023/03/12 02:33:51;;;;;;;19.15;11.75;;;;;;;6.76;64.08;100876.19;5031340;28;20467;-40
2023/03/12 02:36:18;;;;;;;17.98;11.93;;;;;;;6.81;63.72;100885.25;5030946;28;20408;-40
2023/03/12 02:38:45;;;;;;;18.42;11.65;;;;;;;6.75;63.99;100871.78;5031536;28;20037;-40
2023/03/12 02:41:13;;;;;;;19.30;11.70;;;;;;;6.80;63.10;100871.78;5031520;28;20468;-41
2023/03/12 02:43:39;;;;;;;19.40;11.73;;;;;;;6.70;62.72;100872.63;5031247;28;20022;-40
2023/03/12 02:46:06;;;;;;;17.83;11.70;;;;;;;6.77;63.47;100886.09;5031410;28;20483;-40
2023/03/12 02:48:32;;;;;;;18.13;11.73;;;;;;;6.74;64.48;100878.38;5031358;28;20087;-40
2023/03/12 02:50:57;;;;;;;19.85;11.63;;;;;;;6.76;64.11;100876.19;5030964;28;20053;-40
2023/03/12 02:53:22;;;;;;;19.40;11.63;;;;;;;6.78;63.84;100882.22;5029887;28;20033;-40
2023/03/12 02:55:48;;;;;;;17.70;11.60;;;;;;;6.76;63.74;100877.00;5031316;28;20026;-40
2023/03/12 02:58:13;;;;;;;20.65;12.20;;;;;;;6.78;63.72;100877.53;5031388;28;20040;-40
2023/03/12 03:00:38;;;;;;;18.38;11.60;;;;;;;6.69;64.05;100870.97;5024714;28;20037;-40
2023/03/12 03:03:04;;;;;;;18.42;12.00;;;;;;;6.72;63.80;100864.94;5031241;28;20411;-40
2023/03/12 03:05:29;;;;;;;20.25;12.05;;;;;;;6.69;65.95;100860.81;5031242;28;20037;-41
2023/03/12 03:07:54;;;;;;;18.13;11.93;;;;;;;6.67;64.43;100862.16;5031216;28;20035;-40
2023/03/12 03:10:19;;;;;;;20.48;12.27;;;;;;;6.73;64.36;100858.31;5032289;28;20051;-40
2023/03/12 03:12:45;;;;;;;19.60;11.95;;;;;;;6.77;64.69;100861.34;5034950;28;20033;-40
2023/03/12 03:15:11;;;;;;;19.15;11.63;;;;;;;6.78;63.82;100861.03;5034774;28;20429;-40
2023/03/12 03:17:36;;;;;;;19.35;11.90;;;;;;;6.82;64.35;100861.31;5033879;28;20599;-40
2023/03/12 03:20:07;;;;;;;18.48;11.88;;;;;;;6.86;64.35;100860.47;5035017;28;20452;-40
2023/03/12 03:22:32;;;;;;;18.63;12.20;;;;;;;6.92;63.61;100861.28;5035268;28;20025;-40
2023/03/12 03:24:58;;;;;;;18.95;12.07;;;;;;;6.93;63.66;100865.66;5033629;28;20503;-40
2023/03/12 03:27:23;;;;;;;20.08;12.00;;;;;;;6.94;64.08;100861.00;5034980;28;20029;-40
2023/03/12 03:29:49;;;;;;;18.25;12.20;;;;;;;6.97;63.86;100868.69;5034985;28;20030;-40
2023/03/12 03:32:14;;;;;;;18.42;11.82;;;;;;;6.99;64.22;100863.72;5034940;28;20033;-40
2023/03/12 03:34:39;;;;;;;20.25;11.55;;;;;;;7.02;64.86;100868.66;5034462;28;20033;-41
2023/03/12 03:37:05;;;;;;;18.52;12.10;;;;;;;7.05;64.54;100870.03;5034744;28;20068;-40
2023/03/12 03:39:30;;;;;;;18.70;11.77;;;;;;;7.08;64.53;100873.03;5034816;28;20446;-41
2023/03/12 03:41:55;;;;;;;19.95;11.80;;;;;;;7.10;64.66;100867.25;5034808;28;20036;-40
2023/03/12 03:44:21;;;;;;;18.88;12.07;;;;;;;7.10;64.60;100862.56;5034217;28;20029;-40
2023/03/12 03:46:47;;;;;;;19.65;11.80;;;;;;;7.11;64.78;100857.88;5034105;28;20103;-40
2023/03/12 03:49:13;;;;;;;18.80;12.13;;;;;;;7.12;64.74;100863.13;5032283;28;20553;-41
2023/03/12 03:51:41;;;;;;;19.45;12.40;;;;;;;7.10;64.61;100853.50;5033922;28;20061;-40
2023/03/12 03:54:07;;;;;;;19.73;11.88;;;;;;;7.10;64.98;100842.47;5034771;28;20109;-40
2023/03/12 03:56:32;;;;;;;19.77;12.20;;;;;;;7.11;65.35;100836.72;5034340;28;20037;-40
2023/03/12 03:58:57;;;;;;;18.38;11.75;;;;;;;7.16;66.65;100835.88;5034361;28;20079;-39
2023/03/12 04:01:23;;;;;;;18.55;12.32;;;;;;;7.17;65.83;100829.25;5032796;28;20149;-40
2023/03/12 04:03:48;;;;;;;18.52;11.95;;;;;;;7.18;65.94;100828.13;5034101;28;20025;-40
2023/03/12 04:06:13;;;;;;;19.20;12.10;;;;;;;7.13;65.63;100820.72;5034430;28;20075;-39
2023/03/12 04:08:39;;;;;;;19.75;12.38;;;;;;;7.09;66.21;100816.06;5034154;28;20037;-40
2023/03/12 04:11:30;;;;;;;18.60;12.07;;;;;;;7.16;67.24;100814.66;5032838;28;20030;-40
2023/03/12 04:13:56;;;;;;;19.80;12.10;;;;;;;7.09;66.58;100816.91;5024976;28;20037;-39
2023/03/12 04:16:21;;;;;;;19.45;11.80;;;;;;;7.00;66.32;100802.09;5034049;28;20025;-40
2023/03/12 04:18:47;;;;;;;17.45;11.10;;;;;;;7.15;76.45;100795.69;5033294;28;20122;-41
2023/03/12 04:21:13;;;;;;;16.45;10.90;;;;;;;7.35;78.17;100794.75;5033135;28;20030;-40
2023/03/12 04:23:39;;;;;;;21.15;12.25;;;;;;;7.34;67.92;100787.59;5033452;28;20033;-40
2023/03/12 04:26:05;;;;;;;18.25;11.98;;;;;;;7.26;68.27;100785.44;5033956;28;20033;-40
2023/03/12 04:28:30;;;;;;;20.48;12.05;;;;;;;7.14;68.19;100783.06;5033879;28;20025;-42
2023/03/12 04:31:00;;;;;;;19.77;12.10;;;;;;;7.08;68.84;100778.69;5033690;28;20035;-40
2023/03/12 04:33:27;;;;;;;18.90;11.88;;;;;;;6.97;68.92;100755.91;5034062;28;20443;-40
2023/03/12 04:35:52;;;;;;;19.35;11.98;;;;;;;7.00;69.42;100760.84;5032366;28;20083;-40
2023/03/12 04:38:20;;;;;;;19.60;12.35;;;;;;;6.89;68.45;100754.59;5033687;28;20033;-40
2023/03/12 04:40:45;;;;;;;21.55;11.95;;;;;;;6.91;68.74;100746.06;5015874;28;20121;-40
2023/03/12 04:43:11;;;;;;;18.85;11.65;;;;;;;6.89;69.76;100740.84;5033462;28;20029;-40
2023/03/12 04:45:38;;;;;;;18.08;12.07;;;;;;;6.83;68.60;100750.22;5033482;28;20075;-40
2023/03/12 04:48:03;;;;;;;20.60;12.52;;;;;;;6.87;69.85;100743.06;5033424;28;20072;-40
2023/03/12 04:50:29;;;;;;;21.02;12.32;;;;;;;6.91;69.42;100735.84;5031838;28;20033;-40
2023/03/12 04:52:54;;;;;;;20.13;12.20;;;;;;;6.94;69.60;100746.31;5033405;28;20040;-40
2023/03/12 04:55:19;;;;;;;19.15;11.85;;;;;;;6.96;69.40;100749.59;5033398;28;20052;-40
2023/03/12 04:57:45;;;;;;;21.38;12.07;;;;;;;7.03;70.41;100733.59;5033284;28;20104;-40
2023/03/12 05:00:12;;;;;;;19.00;11.77;;;;;;;6.99;68.04;100735.25;5032933;28;20046;-40
2023/03/12 05:02:38;;;;;;;20.52;11.90;;;;;;;6.97;68.84;100731.16;5032146;28;20471;-40
2023/03/12 05:05:04;;;;;;;19.63;11.68;;;;;;;6.99;69.08;100734.44;5032603;28;20029;-40
2023/03/12 05:07:30;;;;;;;20.55;11.93;;;;;;;6.97;68.99;100736.66;5032794;28;20032;-40
2023/03/12 05:09:55;;;;;;;18.80;11.65;;;;;;;6.99;69.94;100734.44;5032702;28;20104;-40
2023/03/12 05:12:20;;;;;;;20.25;12.13;;;;;;;7.00;68.95;100738.84;5030088;28;20424;-41
2023/03/12 05:14:45;;;;;;;19.58;11.63;;;;;;;7.09;68.86;100723.38;5029511;28;20458;-40
2023/03/12 05:17:11;;;;;;;18.42;11.80;;;;;;;7.03;70.21;100713.53;5033058;28;20048;-40
2023/03/12 05:19:36;;;;;;;21.38;11.80;;;;;;;7.06;69.39;100709.38;5032983;28;20104;-41
2023/03/12 05:22:01;;;;;;;19.80;11.48;;;;;;;7.12;70.24;100700.81;5032455;28;20025;-40
2023/03/12 05:24:27;;;;;;;17.38;11.40;;;;;;;7.09;70.01;100703.28;5032793;28;20043;-40
2023/03/12 05:26:52;;;;;;;19.15;11.68;;;;;;;7.09;70.55;100695.03;5032899;28;20033;-40
2023/03/12 05:29:18;;;;;;;18.90;11.65;;;;;;;7.26;72.43;100709.25;5032828;28;20064;-40
2023/03/12 05:31:43;;;;;;;23.25;11.25;;;;;;;7.51;77.52;100696.34;5033000;28;20569;-40
2023/03/12 05:34:11;;;;;;;22.75;12.10;;;;;;;7.61;75.73;100695.44;5032351;28;20436;-40
2023/03/12 05:36:36;;;;;;;21.48;12.80;;;;;;;7.63;69.62;100694.06;5031201;28;20052;-40
2023/03/12 05:39:01;;;;;;;22.67;12.15;;;;;;;7.72;71.20;100701.69;5032629;28;20037;-40
2023/03/12 05:41:29;;;;;;;19.35;11.45;;;;;;;7.67;69.57;100698.97;5031775;28;20060;-41
2023/03/12 05:43:56;;;;;;;18.70;11.40;;;;;;;7.56;69.61;100690.78;5031798;28;20109;-40
2023/03/12 05:46:23;;;;;;;18.50;11.55;;;;;;;7.58;69.79;100694.09;5032485;28;20029;-40
2023/03/12 05:48:48;;;;;;;21.60;12.02;;;;;;;7.54;69.85;100697.72;5032509;28;20033;-40
2023/03/12 05:51:14;;;;;;;21.75;12.10;;;;;;;7.57;71.91;100697.94;5032426;28;20038;-40
2023/03/12 05:53:39;;;;;;;21.75;11.93;;;;;;;7.61;71.05;100696.25;5032287;28;20050;-40
2023/03/12 05:56:07;;;;;;;21.08;11.48;;;;;;;7.57;71.72;100688.88;5032257;28;20464;-40
2023/03/12 05:58:34;;;;;;;21.60;11.77;;;;;;;7.63;73.31;100695.97;5032103;28;20025;-40
2023/03/12 06:01:00;;;;;;;20.13;12.35;;;;;;;7.67;72.70;100697.03;5020193;28;20038;-41
2023/03/12 06:03:25;;;;;;;20.20;12.50;;;;;;;7.68;72.34;100695.09;5021151;28;20057;-40
2023/03/12 06:05:54;;;;;;;21.60;12.98;;;;;;;7.70;72.96;100695.63;5021479;28;20122;-40
2023/03/12 06:08:20;;;;;;;20.42;12.13;;;;;;;7.65;71.52;100685.50;5021649;28;20013;-41
2023/03/12 06:10:49;;;;;;;19.80;12.02;;;;;;;7.61;71.58;100692.69;5020660;28;20136;-40
2023/03/12 06:13:15;;;;;;;22.17;12.38;;;;;;;7.55;72.05;100682.84;5015707;28;20030;-40
2023/03/12 06:15:40;;;;;;;19.65;12.50;;;;;;;7.58;71.89;100679.50;5021054;28;20208;-40
2023/03/12 06:18:05;;;;;;;19.88;11.93;;;;;;;7.57;72.00;100688.88;5021913;28;20030;-40
2023/03/12 06:20:30;;;;;;;19.58;12.25;;;;;;;7.57;73.97;100695.19;5020854;28;20400;-40
2023/03/12 06:22:56;;;;;;;20.23;11.85;;;;;;;7.60;73.40;100691.88;5022535;28;20025;-40
2023/03/12 06:25:21;;;;;;;20.83;12.05;;;;;;;7.68;74.29;100693.19;5020535;28;20129;-41
2023/03/12 06:27:46;;;;;;;20.83;12.10;;;;;;;7.71;73.28;100698.09;5014257;28;20071;-40
2023/03/12 06:30:12;;;;;;;19.58;11.60;;;;;;;7.67;73.99;100705.31;5022354;28;20088;-40
2023/03/12 06:32:37;;;;;;;20.40;12.00;;;;;;;7.55;74.98;100680.91;5020448;28;20578;-40
2023/03/12 06:35:04;;;;;;;20.20;12.20;;;;;;;7.66;74.06;100700.91;5021817;28;20033;-40
2023/03/12 06:37:30;;;;;;;18.92;12.15;;;;;;;7.67;74.09;100690.69;5021766;28;20030;-40
2023/03/12 06:39:55;;;;;;;19.40;12.10;;;;;;;7.71;75.38;100684.31;5021007;28;20099;-40
2023/03/12 06:42:21;;;;;;;17.80;11.73;;;;;;;7.74;74.96;100681.00;5020872;28;20021;-40
2023/03/12 06:44:47;;;;;;;19.75;11.82;;;;;;;7.74;75.43;100682.94;5016661;28;20088;-40
2023/03/12 06:47:12;;;;;;;19.50;11.88;;;;;;;7.77;75.54;100676.84;5011915;28;20025;-41
2023/03/12 06:49:37;;;;;;;19.55;11.82;;;;;;;7.81;76.25;100672.41;5011869;28;20034;-40
2023/03/12 06:52:03;;;;;;;18.27;12.20;;;;;;;7.77;76.00;100674.06;5011495;28;20507;-41
2023/03/12 06:54:29;;;;;;;20.30;12.45;;;;;;;7.76;76.25;100665.00;5011476;28;20038;-40
2023/03/12 06:56:54;;;;;;;19.90;12.43;;;;;;;7.78;76.94;100664.72;5011921;28;20062;-41
2023/03/12 06:59:20;;;;;;;19.45;12.43;;;;;;;7.78;77.30;100653.69;5011227;28;20045;-40
2023/03/12 07:01:46;;;;;;;18.23;11.98;;;;;;;7.76;77.34;100647.66;5011331;28;20489;-40
2023/03/12 07:04:11;;;;;;;20.55;12.27;;;;;;;7.79;77.77;100650.63;5011812;28;20042;-41
2023/03/12 07:06:37;;;;;;;20.02;12.20;;;;;;;7.78;77.51;100650.94;5011640;28;20045;-41
2023/03/12 07:09:03;;;;;;;19.88;11.98;;;;;;;7.78;77.69;100640.75;5004366;28;20034;-41
2023/03/12 07:11:29;;;;;;;20.38;11.73;;;;;;;7.77;77.77;100646.53;5011864;28;20033;-41
2023/03/12 07:13:54;;;;;;;20.25;11.90;;;;;;;7.80;78.26;100646.78;5011711;28;20030;-41
2023/03/12 07:16:19;;;;;;;18.08;11.27;;;;;;;7.83;78.58;100650.06;5011881;28;20030;-40
2023/03/12 07:18:45;;;;;;;18.83;11.55;;;;;;;7.82;78.41;100643.75;5011664;28;20034;-40
2023/03/12 07:21:10;;;;;;;19.10;11.68;;;;;;;7.80;78.31;100655.03;5011433;28;20122;-40
2023/03/12 07:23:35;;;;;;;18.60;11.40;;;;;;;7.83;78.98;100641.78;5021669;28;20373;-40
2023/03/12 07:26:03;;;;;;;19.27;11.43;;;;;;;7.76;78.02;100629.22;5031409;28;20033;-40
2023/03/12 07:28:29;;;;;;;20.40;11.60;;;;;;;7.71;79.58;100639.44;5029909;28;20026;-40
2023/03/12 07:31:02;;;;;;;21.30;12.88;;;;;;;7.75;80.21;100649.59;5031387;28;20025;-41
2023/03/12 07:33:27;;;;;;;19.63;12.07;;;;;;;7.81;79.49;100645.66;5031137;28;20087;-40
2023/03/12 07:35:53;;;;;;;18.63;11.60;;;;;;;7.81;79.15;100651.16;5031146;28;20460;-40
2023/03/12 07:38:18;;;;;;;18.58;11.70;;;;;;;7.85;80.28;100656.09;5031595;28;20022;-40
2023/03/12 07:40:43;;;;;;;20.80;12.45;;;;;;;7.85;79.77;100645.91;5031390;28;20489;-39
2023/03/12 07:43:11;;;;;;;20.63;12.68;;;;;;;7.84;79.47;100654.47;5031097;28;20499;-40
2023/03/12 07:45:38;;;;;;;19.13;11.73;;;;;;;7.83;80.17;100650.06;5031081;28;20499;-40
2023/03/12 07:48:03;;;;;;;20.13;11.82;;;;;;;7.79;80.13;100647.88;5029533;28;20128;-41
2023/03/12 07:50:29;;;;;;;18.70;11.52;;;;;;;7.77;80.32;100649.28;5030663;28;20041;-40
2023/03/12 07:52:54;;;;;;;19.00;11.77;;;;;;;7.83;80.65;100653.66;5030883;28;20029;-40
2023/03/12 07:55:19;;;;;;;19.38;11.48;;;;;;;7.85;81.02;100654.16;5031053;28;20377;-39
2023/03/12 07:57:44;;;;;;;19.50;11.70;;;;;;;7.85;81.58;100659.66;5034123;28;20025;-40
2023/03/12 08:00:10;;;;;;;19.25;11.95;;;;;;;7.86;81.92;100658.56;5034447;28;20041;-40
2023/03/12 08:02:36;;;;;;;20.52;12.82;;;;;;;7.89;81.18;100654.38;5014985;28;20056;-40
2023/03/12 08:05:01;;;;;;;19.27;11.90;;;;;;;7.88;80.78;100659.09;5014323;28;20489;-40
2023/03/12 08:07:31;;;;;;;18.40;12.00;;;;;;;7.85;80.94;100656.09;5034327;28;20105;-41
2023/03/12 08:10:00;;;;;;;20.08;12.27;;;;;;;7.83;82.04;100655.56;5034547;28;20087;-40
2023/03/12 08:12:26;;;;;;;17.92;11.82;;;;;;;7.79;81.56;100660.84;5034605;28;20041;-40
2023/03/12 08:14:51;;;;;;;17.70;10.45;;;;;;;8.05;86.49;100650.38;5034035;28;20028;-39
2023/03/12 08:17:17;;;;;;;18.63;10.90;;;;;;;8.37;85.48;100651.59;5034203;28;20440;-39
2023/03/12 08:19:42;;;;;;;19.80;11.50;;;;;;;8.64;83.29;100647.44;5034159;28;20036;-41
2023/03/12 08:22:07;;;;;;;21.05;11.23;;;;;;;8.98;83.98;100654.63;5033737;28;20036;-39
2023/03/12 08:24:34;;;;;;;19.42;10.60;;;;;;;9.17;83.33;100640.78;5034177;28;20029;-40
2023/03/12 08:26:59;;;;;;;19.85;11.15;;;;;;;9.43;82.85;100661.63;5034001;28;20105;-39
2023/03/12 08:29:25;;;;;;;22.10;11.55;;;;;;;9.39;78.63;100655.09;5034089;28;20121;-39
2023/03/12 08:31:50;;;;;;;19.40;12.20;;;;;;;9.23;78.20;100662.81;5033909;28;20034;-39
2023/03/12 08:34:15;;;;;;;22.85;11.20;;;;;;;9.29;80.39;100651.38;5033839;28;20071;-39
2023/03/12 08:36:41;;;;;;;19.75;12.25;;;;;;;9.31;78.19;100656.59;5033270;28;20029;-40
2023/03/12 08:39:06;;;;;;;21.85;12.48;;;;;;;9.22;77.67;100667.47;5032392;28;20044;-39
2023/03/12 08:41:31;;;;;;;23.95;11.43;;;;;;;9.14;79.62;100671.78;5033759;28;20114;-39
2023/03/12 08:43:57;;;;;;;19.38;11.98;;;;;;;9.12;78.99;100662.97;5031953;28;20055;-40
2023/03/12 08:46:22;;;;;;;19.63;11.90;;;;;;;9.25;78.78;100661.38;5032246;28;20498;-39
2023/03/12 08:48:47;;;;;;;20.33;12.07;;;;;;;9.32;78.97;100666.50;5033082;28;20473;-39
2023/03/12 08:51:12;;;;;;;20.00;12.38;;;;;;;9.26;78.78;100679.56;5033260;28;20563;-39
2023/03/12 08:53:38;;;;;;;19.38;11.90;;;;;;;9.30;79.06;100674.25;5033573;28;20044;-39
2023/03/12 08:56:04;;;;;;;19.83;12.48;;;;;;;9.36;79.01;100679.41;5032300;28;20540;-39
2023/03/12 08:58:30;;;;;;;19.67;10.75;;;;;;;9.56;80.07;100677.41;5033402;28;20022;-39
2023/03/12 09:00:56;;;;;;;23.50;11.30;;;;;;;9.72;82.44;100677.97;5032943;28;20065;-39
2023/03/12 09:03:22;;;;;;;20.95;12.60;;;;;;;9.70;81.56;100688.50;5029008;28;20057;-39
2023/03/12 09:05:48;;;;;;;20.92;12.88;;;;;;;9.71;81.88;100683.78;5031315;28;20037;-39
2023/03/12 09:08:14;;;;;;;21.70;13.45;;;;;;;9.69;81.59;100684.09;5032367;28;20559;-39
2023/03/12 09:10:40;;;;;;;19.17;13.60;;;;;;;9.57;81.27;100687.34;5018744;28;20497;-40
2023/03/12 09:13:06;;;;;;;22.70;14.02;;;;;;;9.42;81.87;100682.06;5013306;28;20053;-39
2023/03/12 09:15:32;;;;;;;21.67;14.25;;;;;;;9.19;82.28;100682.72;5012721;28;20130;-39
2023/03/12 09:17:57;;;;;;;21.83;14.48;;;;;;;9.09;83.53;100682.88;5013439;28;20041;-41
2023/03/12 09:20:23;;;;;;;21.55;14.35;;;;;;;9.02;84.21;100680.50;5013222;28;20036;-39
2023/03/12 09:22:49;;;;;;;21.40;14.75;;;;;;;8.95;84.69;100679.25;5012917;28;20073;-39
2023/03/12 09:25:15;;;;;;;22.38;15.05;;;;;;;8.89;85.61;100681.25;5012794;28;20511;-40
2023/03/12 09:27:43;;;;;;;22.17;14.50;;;;;;;8.88;86.88;100674.91;5012492;28;20057;-40
2023/03/12 09:30:15;;;;;;;22.23;14.80;;;;;;;8.84;87.07;100673.88;5012372;28;20026;-40
2023/03/12 09:32:40;;;;;;;23.00;14.85;;;;;;;8.84;87.61;100670.28;5012429;28;20022;-40
2023/03/12 09:35:07;;;;;;;25.02;16.73;;;;;;;8.82;88.04;100675.31;5011004;28;20156;-40
2023/03/12 09:37:33;;;;;;;24.45;15.68;;;;;;;8.85;88.42;100666.41;5012714;28;20034;-40
2023/03/12 09:39:59;;;;;;;23.27;16.45;;;;;;;8.82;88.74;100681.63;5012748;28;20034;-39
2023/03/12 09:42:33;;;;;;;25.02;16.77;;;;;;;8.89;89.37;100671.03;5012154;28;20655;-40
2023/03/12 09:45:01;;;;;;;23.70;16.52;;;;;;;8.93;89.84;100674.00;5012264;28;20048;-40
2023/03/12 09:47:30;;;;;;;25.00;17.20;;;;;;;8.93;90.71;100675.97;5012129;28;20037;-40
2023/03/12 09:50:06;;;;;;;22.83;16.70;;;;;;;9.02;90.97;100674.16;5011564;28;20296;-40
2023/03/12 09:52:43;;;;;;;24.38;17.60;;;;;;;9.08;91.30;100692.28;5011446;28;20389;-40
2023/03/12 09:55:16;;;;;;;25.55;18.73;;;;;;;9.13;91.78;100681.16;5011909;28;20282;-40
2023/03/12 09:57:43;;;;;;;24.75;17.77;;;;;;;9.26;91.25;100696.13;5010671;28;20439;-40
2023/03/12 10:00:15;;;;;;;25.52;18.90;;;;;;;9.34;91.69;100694.63;5005208;28;20064;-41
2023/03/12 10:03:05;;;;;;;25.23;18.60;;;;;;;9.42;91.46;100699.47;5012021;28;20021;-40
2023/03/12 10:05:43;;;;;;;25.90;18.75;;;;;;;9.49;92.04;100693.56;5012017;28;20040;-39
2023/03/12 10:08:23;;;;;;;24.67;16.88;;;;;;;9.56;92.01;100698.66;5011776;28;20363;-40
2023/03/12 10:10:54;;;;;;;26.83;18.95;;;;;;;9.52;92.59;100695.69;5011734;28;20088;-39
2023/03/12 10:13:41;;;;;;;27.08;19.58;;;;;;;9.60;92.21;100705.25;5011957;28;20037;-39
2023/03/12 10:16:40;;;;;;;25.80;18.88;;;;;;;9.64;92.20;100704.34;5010039;28;20136;-40
2023/03/12 10:19:23;;;;;;;25.83;19.52;;;;;;;9.64;93.49;100703.50;5010817;28;20030;-39
2023/03/12 10:22:00;;;;;;;26.25;18.45;;;;;;;9.75;92.27;100699.44;5010231;28;20038;-40
2023/03/12 10:25:16;;;;;;;26.27;18.58;;;;;;;9.86;91.68;100700.09;5009776;28;20527;-39
2023/03/12 10:27:42;;;;;;;26.35;18.75;;;;;;;9.88;92.28;100681.22;4992526;28;20105;-40
2023/03/12 10:30:23;;;;;;;24.60;18.27;;;;;;;9.92;91.98;100673.97;5010103;28;20041;-39
2023/03/12 10:32:55;;;;;;;25.65;18.67;;;;;;;10.04;91.65;100684.53;5012138;28;20030;-39
2023/03/12 10:35:23;;;;;;;26.40;18.92;;;;;;;10.01;92.34;100676.88;5010274;28;20034;-39
2023/03/12 10:37:50;;;;;;;25.55;18.38;;;;;;;10.11;92.13;100687.69;5009940;28;20397;-40
2023/03/12 10:40:18;;;;;;;27.88;18.85;;;;;;;10.15;91.43;100699.78;5008585;28;20037;-40
2023/03/12 10:42:44;;;;;;;24.42;17.58;;;;;;;10.07;91.71;100672.03;5009964;28;20030;-39
2023/03/12 10:45:09;;;;;;;27.92;19.60;;;;;;;10.23;92.48;100691.91;5009290;28;20029;-39
2023/03/12 10:47:39;;;;;;;24.80;18.05;;;;;;;10.28;92.85;100684.31;5009912;28;20110;-39
2023/03/12 10:50:24;;;;;;;26.08;18.23;;;;;;;10.34;92.39;100682.28;5009777;28;20042;-39
2023/03/12 10:52:51;;;;;;;29.13;18.83;;;;;;;10.35;92.92;100683.06;5009959;28;20038;-39
2023/03/12 10:55:28;;;;;;;26.95;18.60;;;;;;;10.43;93.17;100677.69;5002527;28;20509;-39
2023/03/12 10:57:54;;;;;;;27.92;18.13;;;;;;;10.48;92.31;100678.72;5018444;28;20026;-40
2023/03/12 11:00:24;;;;;;;28.15;18.02;;;;;;;10.47;92.29;100680.66;5023338;28;20087;-39
2023/03/12 11:03:18;;;;;;;25.40;17.83;;;;;;;10.49;92.05;100681.16;5029581;28;20031;-39
2023/03/12 11:05:49;;;;;;;25.42;17.90;;;;;;;10.48;91.92;100678.72;5029030;28;20046;-40
2023/03/12 11:08:30;;;;;;;26.23;18.80;;;;;;;10.55;92.19;100695.69;5029057;28;20033;-40
2023/03/12 11:10:57;;;;;;;27.40;18.98;;;;;;;10.59;92.69;100692.00;5028976;28;20037;-40
2023/03/12 11:13:27;;;;;;;25.80;18.55;;;;;;;10.61;92.79;100689.75;5029383;28;20033;-40
2023/03/12 11:15:53;;;;;;;28.75;19.15;;;;;;;10.67;93.99;100706.22;5029473;28;20037;-40
2023/03/12 11:18:28;;;;;;;28.48;18.08;;;;;;;10.64;93.76;100691.06;5027901;28;20041;-40